createdAt,value
2023-03-26T00:01:23.688Z,7.60
2023-03-26T00:03:58.188Z,5.93
2023-03-26T00:06:38.837Z,3.60
2023-03-26T00:09:10.573Z,3.60
2023-03-26T00:11:37.460Z,4.38
2023-03-26T00:14:05.651Z,7.03
2023-03-26T00:16:32.921Z,3.80
2023-03-26T00:19:00.373Z,6.60
2023-03-26T00:21:32.647Z,4.53
2023-03-26T00:24:09.063Z,5.35
2023-03-26T00:26:37.659Z,6.50
2023-03-26T00:29:05.034Z,4.68
2023-03-26T00:31:31.981Z,4.15
2023-03-26T00:33:59.606Z,7.75
2023-03-26T00:36:27.297Z,6.32
2023-03-26T00:38:54.458Z,5.25
2023-03-26T00:41:26.478Z,8.30
2023-03-26T00:43:58.276Z,5.10
2023-03-26T00:48:52.477Z,4.75
2023-03-26T00:51:20.737Z,4.13
2023-03-26T00:53:49.520Z,4.95
2023-03-26T00:56:17.168Z,5.88
2023-03-26T00:58:47.635Z,4.25
2023-03-26T01:01:21.688Z,8.13
2023-03-26T01:04:07.326Z,7.25
2023-03-26T01:06:38.905Z,9.43
2023-03-26T01:09:16.794Z,3.63
2023-03-26T01:14:20.234Z,3.15
2023-03-26T01:16:52.514Z,6.85
2023-03-26T01:19:39.824Z,3.83
2023-03-26T01:22:12.093Z,4.97
2023-03-26T01:24:39.670Z,4.07
2023-03-26T01:27:12.237Z,5.32
2023-03-26T01:30:04.395Z,4.80
2023-03-26T01:32:58.106Z,6.88
2023-03-26T01:36:09.245Z,8.75
2023-03-26T01:39:08.544Z,6.88
2023-03-26T01:41:51.332Z,5.57
2023-03-26T01:44:32.165Z,3.78
2023-03-26T01:47:01.139Z,4.93
2023-03-26T01:49:28.982Z,4.93
2023-03-26T01:51:58.004Z,3.17
2023-03-26T01:54:27.558Z,5.50
2023-03-26T01:57:13.959Z,4.70
2023-03-26T02:00:07.218Z,3.40
2023-03-26T02:02:47.208Z,2.80
2023-03-26T02:05:32.561Z,3.20
2023-03-26T02:08:11.899Z,5.57
2023-03-26T02:10:45.283Z,5.05
2023-03-26T02:13:15.105Z,5.78
2023-03-26T02:15:54.122Z,4.05
2023-03-26T02:18:24.188Z,4.72
2023-03-26T02:20:53.395Z,5.15
2023-03-26T02:23:21.192Z,6.90
2023-03-26T02:25:48.127Z,3.03
2023-03-26T02:28:14.986Z,4.18
2023-03-26T02:30:43.398Z,3.28
2023-03-26T02:33:10.288Z,5.43
2023-03-26T02:35:36.994Z,5.13
2023-03-26T02:38:03.590Z,4.38
2023-03-26T02:40:30.333Z,6.82
2023-03-26T02:42:57.049Z,4.93
2023-03-26T02:45:23.597Z,7.80
2023-03-26T02:47:51.615Z,4.65
2023-03-26T02:50:18.115Z,4.72
2023-03-26T02:52:45.773Z,5.28
2023-03-26T02:55:12.411Z,7.03
2023-03-26T02:57:39.244Z,5.50
2023-03-26T03:00:14.957Z,5.75
2023-03-26T03:02:41.861Z,7.50
2023-03-26T03:05:08.752Z,5.93
2023-03-26T03:07:38.155Z,7.53
2023-03-26T03:10:08.698Z,8.68
2023-03-26T03:12:35.869Z,7.38
2023-03-26T03:15:03.459Z,6.95
2023-03-26T03:17:30.259Z,6.15
2023-03-26T03:19:57.100Z,4.53
2023-03-26T03:22:23.600Z,5.47
2023-03-26T03:24:51.924Z,7.40
2023-03-26T03:27:22.319Z,4.88
2023-03-26T03:29:49.338Z,4.88
2023-03-26T03:32:16.043Z,7.88
2023-03-26T03:34:42.582Z,8.13
2023-03-26T03:37:09.121Z,8.27
2023-03-26T03:39:35.825Z,5.22
2023-03-26T03:42:19.246Z,10.57
2023-03-26T03:44:45.959Z,6.95
2023-03-26T03:47:13.836Z,4.82
2023-03-26T03:49:40.845Z,5.30
2023-03-26T03:52:07.741Z,6.75
2023-03-26T03:54:34.267Z,6.28
2023-03-26T03:57:02.540Z,6.95
2023-03-26T03:59:29.197Z,8.35
2023-03-26T04:01:57.233Z,7.50
2023-03-26T04:04:24.761Z,5.78
2023-03-26T04:06:52.226Z,6.78
2023-03-26T04:09:19.603Z,6.30
2023-03-26T04:11:46.201Z,7.22
2023-03-26T04:14:12.812Z,5.68
2023-03-26T04:16:39.816Z,7.57
2023-03-26T04:19:06.340Z,6.70
2023-03-26T04:21:34.339Z,6.60
2023-03-26T04:24:01.720Z,6.13
2023-03-26T04:26:30.916Z,7.35
2023-03-26T04:29:01.452Z,4.88
2023-03-26T04:31:30.620Z,6.50
2023-03-26T04:34:05.683Z,10.30
2023-03-26T04:36:34.383Z,5.18
2023-03-26T04:39:05.347Z,7.90
2023-03-26T04:41:32.613Z,5.75
2023-03-26T04:44:02.273Z,6.20
2023-03-26T04:46:33.708Z,6.80
2023-03-26T04:49:01.515Z,6.03
2023-03-26T04:51:38.663Z,4.88
2023-03-26T04:54:09.493Z,4.22
2023-03-26T04:56:43.418Z,4.82
2023-03-26T04:59:17.559Z,7.43
2023-03-26T05:01:46.006Z,5.68
2023-03-26T05:04:13.954Z,7.88
2023-03-26T05:06:42.877Z,4.32
2023-03-26T05:09:11.211Z,4.85
2023-03-26T05:11:38.864Z,6.50
2023-03-26T05:14:05.570Z,5.78
2023-03-26T05:16:32.438Z,5.70
2023-03-26T05:18:59.140Z,4.63
2023-03-26T05:21:26.022Z,7.03
2023-03-26T05:23:52.683Z,5.25
2023-03-26T05:26:19.639Z,5.78
2023-03-26T05:28:48.643Z,5.00
2023-03-26T05:31:18.716Z,7.03
2023-03-26T05:33:46.724Z,6.68
2023-03-26T05:36:15.649Z,6.30
2023-03-26T05:38:47.265Z,5.50
2023-03-26T05:41:15.574Z,6.60
2023-03-26T05:43:45.972Z,6.55
2023-03-26T05:46:15.741Z,5.15
2023-03-26T05:48:44.556Z,3.38
2023-03-26T05:51:16.921Z,4.70
2023-03-26T05:53:43.590Z,2.55
2023-03-26T05:56:13.460Z,6.15
2023-03-26T05:58:42.433Z,5.70
2023-03-26T06:01:19.219Z,4.72
2023-03-26T06:03:46.587Z,5.15
2023-03-26T06:06:19.033Z,4.50
2023-03-26T06:09:02.246Z,4.30
2023-03-26T06:11:35.154Z,4.80
2023-03-26T06:14:01.687Z,2.20
2023-03-26T06:16:28.448Z,2.63
2023-03-26T06:18:58.894Z,3.05
2023-03-26T06:21:25.916Z,2.97
2023-03-26T06:23:52.852Z,3.13
2023-03-26T06:26:19.509Z,3.08
2023-03-26T06:28:46.226Z,7.13
2023-03-26T06:31:12.874Z,4.20
2023-03-26T06:34:09.398Z,4.47
2023-03-26T06:36:41.446Z,3.03
2023-03-26T06:39:18.252Z,4.45
2023-03-26T06:41:45.299Z,5.68
2023-03-26T06:44:21.640Z,6.88
2023-03-26T06:46:49.012Z,5.45
2023-03-26T06:49:20.429Z,5.47
2023-03-26T06:51:51.926Z,4.82
2023-03-26T06:54:18.708Z,7.90
2023-03-26T06:56:47.640Z,6.28
2023-03-26T06:59:15.913Z,6.22
2023-03-26T07:01:42.368Z,5.25
2023-03-26T07:04:12.772Z,4.18
2023-03-26T07:06:47.731Z,6.35
2023-03-26T07:09:16.661Z,3.28
2023-03-26T07:11:43.475Z,6.38
2023-03-26T07:14:10.036Z,5.18
2023-03-26T07:16:40.022Z,3.83
2023-03-26T07:19:06.940Z,7.38
2023-03-26T07:21:33.913Z,10.30
2023-03-26T07:24:00.728Z,5.80
2023-03-26T07:27:02.424Z,3.13
2023-03-26T07:29:46.855Z,4.53
2023-03-26T07:32:43.470Z,8.00
2023-03-26T07:35:36.661Z,3.72
2023-03-26T07:38:24.914Z,7.15
2023-03-26T07:41:09.479Z,5.47
2023-03-26T07:44:00.096Z,5.07
2023-03-26T07:46:37.273Z,5.03
2023-03-26T07:49:05.178Z,3.78
2023-03-26T07:51:32.322Z,7.63
2023-03-26T07:54:00.737Z,8.40
2023-03-26T07:56:36.381Z,7.22
2023-03-26T07:59:21.760Z,4.65
2023-03-26T08:02:32.656Z,3.88
2023-03-26T08:05:20.409Z,6.80
2023-03-26T08:08:18.835Z,4.35
2023-03-26T08:11:13.999Z,8.10
2023-03-26T08:13:57.153Z,5.15
2023-03-26T08:16:39.378Z,4.10
2023-03-26T08:19:38.832Z,5.80
2023-03-26T08:22:27.533Z,7.95
2023-03-26T08:25:49.897Z,5.38
2023-03-26T08:28:28.961Z,5.65
2023-03-26T08:30:56.859Z,6.13
2023-03-26T08:33:29.836Z,6.55
2023-03-26T08:35:56.668Z,6.10
2023-03-26T08:38:24.566Z,8.55
2023-03-26T08:41:14.670Z,6.88
2023-03-26T08:44:29.594Z,5.03
2023-03-26T08:47:34.315Z,6.82
2023-03-26T08:50:27.543Z,5.20
2023-03-26T08:53:05.351Z,5.43
2023-03-26T08:55:52.642Z,6.72
2023-03-26T08:58:43.300Z,7.95
2023-03-26T09:01:32.157Z,5.78
2023-03-26T09:04:07.529Z,7.80
2023-03-26T09:07:10.428Z,8.77
2023-03-26T09:10:15.709Z,4.50
2023-03-26T09:13:11.191Z,5.63
2023-03-26T09:15:53.709Z,7.38
2023-03-26T09:18:41.108Z,6.88
2023-03-26T09:21:25.654Z,4.30
2023-03-26T09:24:09.251Z,10.57
2023-03-26T09:26:51.426Z,8.07
2023-03-26T09:30:00.742Z,9.30
2023-03-26T09:32:51.815Z,6.15
2023-03-26T09:35:39.904Z,10.23
2023-03-26T09:38:50.880Z,8.10
2023-03-26T09:41:44.839Z,10.02
2023-03-26T09:44:49.040Z,7.57
2023-03-26T09:47:28.823Z,6.90
2023-03-26T09:50:19.404Z,13.55
2023-03-26T09:55:46.284Z,8.88
2023-03-26T09:58:37.574Z,8.48
2023-03-26T10:01:36.359Z,8.32
2023-03-26T10:04:29.089Z,8.32
2023-03-26T10:07:08.368Z,6.85
2023-03-26T10:09:56.805Z,7.20
2023-03-26T10:12:34.054Z,8.50
2023-03-26T10:15:33.002Z,8.43
2023-03-26T10:18:27.529Z,7.78
2023-03-26T10:21:09.619Z,9.45
2023-03-26T10:23:42.136Z,6.35
2023-03-26T10:26:36.984Z,10.73
2023-03-26T10:29:27.179Z,10.85
2023-03-26T10:32:23.957Z,12.32
2023-03-26T10:38:01.657Z,6.20
2023-03-26T10:43:38.192Z,8.82
2023-03-26T10:46:17.505Z,6.53
2023-03-26T10:49:23.411Z,9.13
2023-03-26T10:51:58.519Z,7.25
2023-03-26T10:54:36.980Z,8.95
2023-03-26T10:57:23.631Z,5.65
2023-03-26T10:59:51.874Z,8.68
2023-03-26T11:02:29.432Z,6.65
2023-03-26T11:05:20.754Z,6.07
2023-03-26T11:08:01.196Z,8.18
2023-03-26T11:10:48.846Z,9.38
2023-03-26T11:13:20.710Z,6.75
2023-03-26T11:16:05.832Z,7.13
2023-03-26T11:18:50.109Z,6.22
2023-03-26T11:21:32.475Z,7.57
2023-03-26T11:24:26.511Z,9.88
2023-03-26T11:27:15.734Z,5.50
2023-03-26T11:29:55.658Z,8.00
2023-03-26T11:32:35.444Z,5.25
2023-03-26T11:35:41.060Z,11.43
2023-03-26T11:38:24.595Z,5.47
2023-03-26T11:40:55.871Z,4.63
2023-03-26T11:43:29.451Z,5.75
2023-03-26T11:45:57.430Z,6.72
2023-03-26T11:48:26.750Z,6.82
2023-03-26T11:51:01.958Z,9.45
2023-03-26T11:53:32.759Z,8.38
2023-03-26T11:56:25.376Z,8.02
2023-03-26T11:59:01.446Z,8.00
2023-03-26T12:01:40.151Z,5.82
2023-03-26T12:04:14.657Z,7.25
2023-03-26T12:06:59.758Z,4.65
2023-03-26T12:09:26.894Z,5.40
2023-03-26T12:11:59.211Z,8.07
2023-03-26T12:14:28.596Z,5.97
2023-03-26T12:17:40.236Z,5.10
2023-03-26T12:20:33.614Z,5.78
2023-03-26T12:23:05.515Z,6.00
2023-03-26T12:25:33.787Z,5.80
2023-03-26T12:28:18.257Z,4.50
2023-03-26T12:30:58.161Z,6.57
2023-03-26T12:33:34.247Z,6.68
2023-03-26T12:36:19.298Z,6.65
2023-03-26T12:38:46.429Z,5.15
2023-03-26T12:44:42.403Z,4.55
2023-03-26T12:44:49.272Z,5.35
2023-03-26T12:47:57.901Z,5.90
2023-03-26T12:50:14.805Z,4.75
2023-03-26T12:52:44.215Z,5.53
2023-03-26T12:55:32.151Z,4.15
2023-03-26T12:58:20.111Z,6.15
2023-03-26T13:01:02.573Z,7.15
2023-03-26T13:03:53.696Z,4.38
2023-03-26T13:06:48.462Z,5.35
2023-03-26T13:09:44.068Z,2.92
2023-03-26T13:12:42.248Z,3.42
2023-03-26T13:15:24.809Z,4.68
2023-03-26T13:18:24.523Z,5.15
2023-03-26T13:21:18.546Z,6.00
2023-03-26T13:23:56.921Z,4.40
2023-03-26T13:26:41.658Z,2.80
2023-03-26T13:29:35.950Z,2.38
2023-03-26T13:32:39.519Z,4.38
2023-03-26T13:35:36.911Z,3.40
2023-03-26T13:38:15.693Z,3.05
2023-03-26T13:41:06.196Z,3.88
2023-03-26T13:43:41.147Z,4.45
2023-03-26T13:46:29.226Z,4.20
2023-03-26T13:49:12.106Z,5.55
2023-03-26T13:51:44.697Z,3.33
2023-03-26T13:54:37.055Z,6.07
2023-03-26T13:57:28.791Z,4.60
2023-03-26T14:00:13.811Z,5.22
2023-03-26T14:02:42.496Z,5.38
2023-03-26T14:05:17.697Z,3.60
2023-03-26T14:07:57.784Z,4.10
2023-03-26T14:10:34.291Z,4.40
2023-03-26T14:13:11.805Z,6.40
2023-03-26T14:18:59.605Z,3.28
2023-03-26T14:21:34.277Z,6.93
2023-03-26T14:24:35.611Z,5.45
2023-03-26T14:27:21.947Z,4.60
2023-03-26T14:30:14.231Z,3.75
2023-03-26T14:33:13.172Z,6.45
2023-03-26T14:36:09.172Z,5.10
2023-03-26T14:39:14.300Z,6.90
2023-03-26T14:41:59.205Z,6.15
2023-03-26T14:44:54.628Z,3.35
2023-03-26T14:47:21.969Z,6.47
2023-03-26T14:50:20.513Z,6.35
2023-03-26T14:52:49.014Z,8.00
2023-03-26T14:55:49.703Z,5.28
2023-03-26T14:58:41.200Z,8.85
2023-03-26T15:01:27.747Z,5.47
2023-03-26T15:04:19.184Z,3.70
2023-03-26T15:07:18.834Z,6.55
2023-03-26T15:10:07.211Z,7.10
2023-03-26T15:12:56.770Z,8.57
2023-03-26T15:15:44.022Z,4.75
2023-03-26T15:18:35.654Z,5.18
2023-03-26T15:21:36.992Z,5.65
2023-03-26T15:24:32.377Z,2.55
2023-03-26T15:27:20.141Z,5.15
2023-03-26T15:30:11.728Z,5.30
2023-03-26T15:33:06.398Z,3.15
2023-03-26T15:36:04.712Z,6.07
2023-03-26T15:38:54.258Z,7.30
2023-03-26T15:41:34.775Z,3.72
2023-03-26T15:44:23.680Z,5.63
2023-03-26T15:47:16.748Z,5.18
2023-03-26T15:49:54.967Z,4.32
2023-03-26T15:52:34.375Z,4.57
2023-03-26T15:55:19.289Z,5.53
2023-03-26T15:57:49.044Z,4.95
2023-03-26T16:00:31.168Z,3.97
2023-03-26T16:03:10.203Z,4.35
2023-03-26T16:06:14.839Z,5.28
2023-03-26T16:08:53.006Z,4.53
2023-03-26T16:11:53.873Z,5.38
2023-03-26T16:14:35.953Z,6.03
2023-03-26T16:17:07.895Z,7.10
2023-03-26T16:20:13.839Z,6.05
2023-03-26T16:22:59.670Z,7.45
2023-03-26T16:25:33.554Z,5.90
2023-03-26T16:28:27.351Z,3.65
2023-03-26T16:31:35.298Z,3.63
2023-03-26T16:34:21.556Z,7.38
2023-03-26T16:36:51.868Z,7.82
2023-03-26T16:39:23.817Z,6.43
2023-03-26T16:42:23.830Z,6.38
2023-03-26T16:45:11.258Z,4.80
2023-03-26T16:47:50.720Z,6.60
2023-03-26T16:50:46.193Z,7.13
2023-03-26T16:53:30.009Z,5.50
2023-03-26T16:56:02.364Z,6.55
2023-03-26T16:58:43.938Z,5.32
2023-03-26T17:01:27.395Z,3.95
2023-03-26T17:04:06.216Z,7.20
2023-03-26T17:07:03.744Z,4.43
2023-03-26T17:09:41.616Z,3.72
2023-03-26T17:12:35.130Z,4.70
2023-03-26T17:15:17.037Z,4.50
2023-03-26T17:17:57.507Z,4.78
2023-03-26T17:20:32.824Z,6.15
2023-03-26T17:23:13.971Z,6.75
2023-03-26T17:25:52.037Z,3.38
2023-03-26T17:28:32.539Z,4.05
2023-03-26T17:31:43.860Z,4.43
2023-03-26T17:34:47.056Z,3.08
2023-03-26T17:37:16.296Z,5.38
2023-03-26T17:39:46.972Z,6.95
2023-03-26T17:42:13.931Z,4.68
2023-03-26T17:44:44.009Z,6.10
2023-03-26T17:47:22.483Z,5.05
2023-03-26T17:49:53.554Z,5.03
2023-03-26T17:52:25.880Z,7.65
2023-03-26T17:54:55.828Z,4.85
2023-03-26T17:57:34.806Z,3.03
2023-03-26T18:00:02.928Z,6.07
2023-03-26T18:02:42.335Z,4.40
2023-03-26T18:05:12.586Z,7.65
2023-03-26T18:08:02.371Z,7.47
2023-03-26T18:10:52.532Z,4.90
2023-03-26T18:13:57.119Z,8.45
2023-03-26T18:16:42.103Z,7.43
2023-03-26T18:19:24.915Z,5.60
2023-03-26T18:21:52.657Z,6.30
2023-03-26T18:24:25.174Z,7.75
2023-03-26T18:26:56.215Z,7.57
2023-03-26T18:29:26.805Z,4.30
2023-03-26T18:32:00.447Z,6.53
2023-03-26T18:34:31.623Z,9.05
2023-03-26T18:37:17.823Z,9.38
2023-03-26T18:39:57.239Z,6.30
2023-03-26T18:42:24.678Z,7.00
2023-03-26T18:44:52.565Z,8.10
2023-03-26T18:47:20.473Z,7.18
2023-03-26T18:49:53.521Z,9.80
2023-03-26T18:52:22.456Z,13.60
2023-03-26T18:54:52.516Z,10.77
2023-03-26T18:57:22.635Z,6.85
2023-03-26T18:59:51.874Z,22.05
2023-03-26T19:02:22.441Z,13.27
2023-03-26T19:04:50.853Z,10.13
2023-03-26T19:07:25.797Z,8.38
2023-03-26T19:09:56.312Z,9.40
2023-03-26T19:12:28.138Z,13.18
2023-03-26T19:15:11.324Z,9.50
2023-03-26T19:17:53.589Z,12.73
2023-03-26T19:20:26.375Z,15.38
2023-03-26T19:22:53.343Z,12.35
2023-03-26T19:25:29.727Z,9.93
2023-03-26T19:27:57.053Z,11.20
2023-03-26T19:30:35.483Z,14.13
2023-03-26T19:33:12.757Z,10.13
2023-03-26T19:35:42.142Z,9.85
2023-03-26T19:38:24.312Z,12.93
2023-03-26T19:40:53.359Z,9.10
2023-03-26T19:43:20.383Z,9.93
2023-03-26T19:46:00.094Z,12.65
2023-03-26T19:48:46.827Z,17.02
2023-03-26T19:51:30.124Z,10.88
2023-03-26T19:54:01.438Z,11.88
2023-03-26T19:56:28.753Z,17.85
2023-03-26T19:58:57.488Z,10.18
2023-03-26T20:01:27.501Z,13.75
2023-03-26T20:04:02.555Z,13.18
2023-03-26T20:06:43.216Z,13.90
2023-03-26T20:12:01.405Z,10.63
2023-03-26T20:14:28.059Z,9.32
2023-03-26T20:16:54.576Z,7.82
2023-03-26T20:19:21.579Z,9.07
2023-03-26T20:21:48.943Z,9.77
2023-03-26T20:24:18.033Z,13.50
2023-03-26T20:26:49.536Z,17.90
2023-03-26T20:29:16.087Z,16.40
2023-03-26T20:31:43.601Z,14.40
2023-03-26T20:34:26.883Z,15.77
2023-03-26T20:36:57.131Z,9.52
2023-03-26T20:39:29.314Z,14.95
2023-03-26T20:41:56.400Z,12.30
2023-03-26T20:44:23.215Z,18.23
2023-03-26T20:46:50.882Z,10.93
2023-03-26T20:49:22.052Z,13.45
2023-03-26T20:51:48.933Z,12.85
2023-03-26T20:54:18.134Z,16.33
2023-03-26T20:56:48.132Z,14.75
2023-03-26T20:59:26.814Z,16.88
2023-03-26T21:01:56.622Z,14.30
2023-03-26T21:04:27.358Z,14.00
2023-03-26T21:07:00.359Z,12.38
2023-03-26T21:09:34.241Z,10.48
2023-03-26T21:12:16.717Z,10.93
2023-03-26T21:14:45.338Z,12.32
2023-03-26T21:17:17.975Z,20.05
2023-03-26T21:19:45.338Z,16.00
2023-03-26T21:22:35.432Z,11.60
2023-03-26T21:25:15.337Z,13.93
2023-03-26T21:28:01.753Z,9.85
2023-03-26T21:30:28.716Z,11.60
2023-03-26T21:32:58.539Z,13.32
2023-03-26T21:35:25.575Z,22.48
2023-03-26T21:37:52.687Z,13.48
2023-03-26T21:40:21.685Z,12.30
2023-03-26T21:42:56.030Z,13.18
2023-03-26T21:45:27.016Z,8.85
2023-03-26T21:47:53.741Z,14.52
2023-03-26T21:50:22.852Z,14.52
2023-03-26T21:52:51.224Z,17.10
2023-03-26T21:55:21.557Z,12.27
2023-03-26T21:58:23.949Z,12.48
2023-03-26T22:01:12.805Z,10.65
2023-03-26T22:04:17.121Z,19.02
2023-03-26T22:06:54.607Z,12.80
2023-03-26T22:09:33.741Z,17.92
2023-03-26T22:12:03.459Z,11.68
2023-03-26T22:14:30.297Z,15.55
2023-03-26T22:16:57.173Z,13.73
2023-03-26T22:19:25.967Z,12.35
2023-03-26T22:21:54.345Z,10.25
2023-03-26T22:24:21.373Z,10.90
2023-03-26T22:26:48.876Z,13.15
2023-03-26T22:29:15.619Z,11.07
2023-03-26T22:31:42.721Z,13.95
2023-03-26T22:34:09.309Z,10.55
2023-03-26T22:36:37.324Z,12.13
2023-03-26T22:39:06.967Z,11.48
2023-03-26T22:41:33.565Z,8.30
2023-03-26T22:44:09.330Z,7.43
2023-03-26T22:46:41.631Z,12.77
2023-03-26T22:49:09.637Z,10.90
2023-03-26T22:51:36.384Z,10.13
2023-03-26T22:54:02.915Z,8.57
2023-03-26T22:56:29.712Z,11.05
2023-03-26T22:58:57.418Z,8.38
2023-03-26T23:01:24.227Z,12.82
2023-03-26T23:03:51.346Z,9.15
2023-03-26T23:06:18.387Z,10.13
2023-03-26T23:08:44.878Z,17.33
2023-03-26T23:11:18.383Z,8.27
2023-03-26T23:13:46.064Z,11.00
2023-03-26T23:16:14.186Z,7.22
2023-03-26T23:18:42.083Z,10.15
2023-03-26T23:21:18.946Z,10.27
2023-03-26T23:23:52.129Z,8.38
2023-03-26T23:26:19.051Z,9.95
2023-03-26T23:28:48.415Z,11.50
2023-03-26T23:31:14.976Z,10.38
2023-03-26T23:33:46.675Z,9.00
2023-03-26T23:36:19.141Z,7.80
2023-03-26T23:38:47.999Z,10.00
2023-03-26T23:41:18.710Z,11.55
2023-03-26T23:43:54.695Z,8.13
2023-03-26T23:46:30.824Z,11.18
2023-03-26T23:49:00.206Z,16.90
2023-03-26T23:51:27.399Z,10.65
2023-03-26T23:53:54.155Z,10.10
2023-03-26T23:56:21.217Z,6.80
2023-03-26T23:58:49.223Z,9.45
